DLH6NV EDDC-EDDM
Flight info
| Callsign | DLH6NV |
|---|---|
| Flight time | 0h 45m |
| Altitude | 30000 |
| Route | MAREM8E MAREM DCT VESUB T106 TUSTO T108 LANDU LANDU2A |
| Aircraft | A320/M-SDE2E3FGIJ1LORWXYZ/HB1 |
Departure
| Time | 2026-05-08 09:23 |
|---|---|
| Airport | Dresden Airport (EDDC) |
Arrival
| Time | 2026-05-08 10:08 |
|---|---|
| Airport | Munich Airport (EDDM) |
| Time | Latitude | Longitude | Altitude | Speed | Heading |
|---|---|---|---|---|---|
| 2026-05-08 08:53 | 51.12631 | 13.76399 | 711 ft | 0 kts | 131° |
| 2026-05-08 09:16 | 51.12639 | 13.76383 | 713 ft | 2 kts | 131° |
| 2026-05-08 09:16 | 51.12650 | 13.76363 | 713 ft | 2 kts | 131° |
| 2026-05-08 09:17 | 51.12661 | 13.76344 | 715 ft | 2 kts | 131° |
| 2026-05-08 09:17 | 51.12672 | 13.76324 | 715 ft | 2 kts | 133° |
| 2026-05-08 09:17 | 51.12683 | 13.76305 | 713 ft | 2 kts | 135° |
| 2026-05-08 09:17 | 51.12695 | 13.76287 | 714 ft | 2 kts | 147° |
| 2026-05-08 09:18 | 51.12710 | 13.76280 | 714 ft | 2 kts | 220° |
| 2026-05-08 09:18 | 51.12713 | 13.76284 | 713 ft | 0 kts | 222° |
| 2026-05-08 09:20 | 51.12707 | 13.76276 | 714 ft | 2 kts | 220° |
| 2026-05-08 09:20 | 51.12691 | 13.76254 | 712 ft | 7 kts | 220° |
| 2026-05-08 09:20 | 51.12645 | 13.76192 | 714 ft | 9 kts | 220° |
| 2026-05-08 09:20 | 51.12601 | 13.76132 | 713 ft | 8 kts | 221° |
| 2026-05-08 09:21 | 51.12571 | 13.76072 | 713 ft | 6 kts | 259° |
| 2026-05-08 09:21 | 51.12600 | 13.76015 | 714 ft | 10 kts | 314° |
| 2026-05-08 09:22 | 51.13894 | 13.77427 | 733 ft | 158 kts | 40° |
| 2026-05-08 09:23 | 51.14707 | 13.78573 | 1452 ft | 155 kts | 41° |
| 2026-05-08 09:23 | 51.15513 | 13.79712 | 2264 ft | 154 kts | 41° |
| 2026-05-08 09:23 | 51.16353 | 13.80887 | 2808 ft | 170 kts | 41° |
| 2026-05-08 09:23 | 51.17295 | 13.82185 | 3256 ft | 188 kts | 41° |
| 2026-05-08 09:24 | 51.18338 | 13.83640 | 3631 ft | 212 kts | 41° |
| 2026-05-08 09:24 | 51.19506 | 13.85295 | 4080 ft | 238 kts | 46° |
| 2026-05-08 09:24 | 51.20285 | 13.87681 | 4579 ft | 259 kts | 81° |
| 2026-05-08 09:24 | 51.20257 | 13.90584 | 5459 ft | 265 kts | 98° |
| 2026-05-08 09:25 | 51.19603 | 13.93330 | 6384 ft | 271 kts | 127° |
| 2026-05-08 09:25 | 51.18238 | 13.95414 | 7307 ft | 274 kts | 140° |
| 2026-05-08 09:25 | 51.16809 | 13.97453 | 8234 ft | 277 kts | 136° |
| 2026-05-08 09:25 | 51.15431 | 13.99636 | 9168 ft | 281 kts | 134° |
| 2026-05-08 09:26 | 51.14068 | 14.01898 | 10097 ft | 285 kts | 133° |
| 2026-05-08 09:26 | 51.12671 | 14.04244 | 10630 ft | 303 kts | 134° |
| 2026-05-08 09:26 | 51.11167 | 14.06764 | 11034 ft | 322 kts | 134° |
| 2026-05-08 09:26 | 51.09548 | 14.09302 | 11719 ft | 330 kts | 143° |
| 2026-05-08 09:27 | 51.07529 | 14.10951 | 12452 ft | 335 kts | 165° |
| 2026-05-08 09:27 | 51.05215 | 14.11266 | 13214 ft | 337 kts | 188° |
| 2026-05-08 09:27 | 51.02984 | 14.10127 | 13975 ft | 340 kts | 211° |
| 2026-05-08 09:27 | 51.01145 | 14.07779 | 14665 ft | 341 kts | 225° |
| 2026-05-08 09:28 | 50.99430 | 14.05151 | 15404 ft | 343 kts | 225° |
| 2026-05-08 09:28 | 50.97706 | 14.02509 | 16123 ft | 346 kts | 225° |
| 2026-05-08 09:28 | 50.95965 | 13.99842 | 16855 ft | 349 kts | 225° |
| 2026-05-08 09:28 | 50.94211 | 13.97156 | 17577 ft | 352 kts | 225° |
| 2026-05-08 09:29 | 50.92443 | 13.94457 | 18293 ft | 355 kts | 225° |
| 2026-05-08 09:29 | 50.90657 | 13.91741 | 18938 ft | 357 kts | 225° |
| 2026-05-08 09:29 | 50.88853 | 13.89002 | 19576 ft | 360 kts | 225° |
| 2026-05-08 09:29 | 50.87038 | 13.86244 | 20178 ft | 363 kts | 225° |
| 2026-05-08 09:30 | 50.85209 | 13.83471 | 20778 ft | 366 kts | 225° |
| 2026-05-08 09:30 | 50.83363 | 13.80676 | 21372 ft | 368 kts | 225° |
| 2026-05-08 09:30 | 50.81504 | 13.77870 | 21961 ft | 371 kts | 225° |
| 2026-05-08 09:30 | 50.79628 | 13.75044 | 22527 ft | 373 kts | 225° |
| 2026-05-08 09:31 | 50.77738 | 13.72196 | 23105 ft | 376 kts | 225° |
| 2026-05-08 09:31 | 50.75841 | 13.69337 | 23661 ft | 378 kts | 225° |
| 2026-05-08 09:31 | 50.73954 | 13.66501 | 24122 ft | 381 kts | 225° |
| 2026-05-08 09:31 | 50.71861 | 13.63891 | 24589 ft | 386 kts | 215° |
| 2026-05-08 09:32 | 50.69471 | 13.61904 | 25026 ft | 391 kts | 204° |
| 2026-05-08 09:32 | 50.66880 | 13.60520 | 25470 ft | 395 kts | 200° |
| 2026-05-08 09:32 | 50.64245 | 13.59215 | 25911 ft | 397 kts | 200° |
| 2026-05-08 09:32 | 50.61596 | 13.57902 | 26347 ft | 400 kts | 200° |
| 2026-05-08 09:33 | 50.58932 | 13.56579 | 26768 ft | 402 kts | 200° |
| 2026-05-08 09:33 | 50.56257 | 13.55249 | 27189 ft | 405 kts | 200° |
| 2026-05-08 09:33 | 50.53566 | 13.53914 | 27603 ft | 407 kts | 200° |
| 2026-05-08 09:33 | 50.50856 | 13.52572 | 28013 ft | 410 kts | 200° |
| 2026-05-08 09:34 | 50.48126 | 13.51216 | 28415 ft | 412 kts | 200° |
| 2026-05-08 09:34 | 50.45379 | 13.49852 | 28802 ft | 415 kts | 200° |
| 2026-05-08 09:34 | 50.42619 | 13.48485 | 29206 ft | 417 kts | 200° |
| 2026-05-08 09:34 | 50.39842 | 13.47110 | 29591 ft | 420 kts | 200° |
| 2026-05-08 09:35 | 50.37041 | 13.45721 | 29984 ft | 422 kts | 201° |
| 2026-05-08 09:35 | 50.34274 | 13.44348 | 30128 ft | 420 kts | 201° |
| 2026-05-08 09:35 | 50.31544 | 13.43000 | 30139 ft | 402 kts | 201° |
| 2026-05-08 09:36 | 50.26326 | 13.40449 | 30137 ft | 388 kts | 201° |
| 2026-05-08 09:36 | 50.21179 | 13.37928 | 30138 ft | 387 kts | 201° |
| 2026-05-08 09:37 | 50.16045 | 13.35407 | 30136 ft | 386 kts | 201° |
| 2026-05-08 09:37 | 50.10913 | 13.32897 | 30134 ft | 386 kts | 201° |
| 2026-05-08 09:38 | 50.05781 | 13.30396 | 30129 ft | 386 kts | 201° |
| 2026-05-08 09:38 | 50.00657 | 13.27909 | 30121 ft | 386 kts | 201° |
| 2026-05-08 09:39 | 49.95535 | 13.25426 | 30119 ft | 385 kts | 201° |
| 2026-05-08 09:39 | 49.90421 | 13.22946 | 30118 ft | 384 kts | 201° |
| 2026-05-08 09:40 | 49.85311 | 13.20477 | 30116 ft | 384 kts | 201° |
| 2026-05-08 09:40 | 49.80245 | 13.18044 | 30119 ft | 384 kts | 201° |
| 2026-05-08 09:41 | 49.75143 | 13.15590 | 30120 ft | 384 kts | 201° |
| 2026-05-08 09:41 | 49.70036 | 13.13134 | 30122 ft | 384 kts | 201° |
| 2026-05-08 09:42 | 49.64940 | 13.10696 | 30123 ft | 383 kts | 201° |
| 2026-05-08 09:42 | 49.59842 | 13.08260 | 30119 ft | 383 kts | 201° |
| 2026-05-08 09:43 | 49.54749 | 13.05830 | 30116 ft | 383 kts | 201° |
| 2026-05-08 09:43 | 49.49653 | 13.03408 | 30115 ft | 383 kts | 201° |
| 2026-05-08 09:44 | 49.44588 | 13.01002 | 30112 ft | 383 kts | 201° |
| 2026-05-08 09:44 | 49.39643 | 12.98088 | 30103 ft | 378 kts | 209° |
| 2026-05-08 09:45 | 49.34887 | 12.94616 | 29903 ft | 378 kts | 209° |
| 2026-05-08 09:45 | 49.32520 | 12.92884 | 29396 ft | 374 kts | 209° |
| 2026-05-08 09:45 | 49.30189 | 12.91186 | 28988 ft | 368 kts | 209° |
| 2026-05-08 09:45 | 49.27897 | 12.89524 | 28593 ft | 362 kts | 209° |
| 2026-05-08 09:46 | 49.25639 | 12.87890 | 28203 ft | 356 kts | 209° |
| 2026-05-08 09:46 | 49.23413 | 12.86277 | 27798 ft | 352 kts | 209° |
| 2026-05-08 09:46 | 49.21205 | 12.84676 | 27375 ft | 349 kts | 209° |
| 2026-05-08 09:46 | 49.19023 | 12.83090 | 26959 ft | 345 kts | 209° |
| 2026-05-08 09:47 | 49.16864 | 12.81519 | 26541 ft | 343 kts | 208° |
| 2026-05-08 09:47 | 49.14717 | 12.79963 | 26111 ft | 340 kts | 208° |
| 2026-05-08 09:47 | 49.12580 | 12.78416 | 25673 ft | 339 kts | 208° |
| 2026-05-08 09:47 | 49.10456 | 12.76880 | 25236 ft | 337 kts | 208° |
| 2026-05-08 09:48 | 49.08339 | 12.75353 | 24789 ft | 336 kts | 208° |
| 2026-05-08 09:48 | 49.06225 | 12.73828 | 24328 ft | 336 kts | 208° |
| 2026-05-08 09:48 | 49.04108 | 12.72303 | 23890 ft | 336 kts | 208° |
| 2026-05-08 09:48 | 49.01990 | 12.70783 | 23375 ft | 337 kts | 207° |
| 2026-05-08 09:49 | 48.99876 | 12.69271 | 22903 ft | 335 kts | 207° |
| 2026-05-08 09:49 | 48.97794 | 12.67782 | 22474 ft | 333 kts | 207° |
| 2026-05-08 09:49 | 48.95701 | 12.66283 | 22031 ft | 331 kts | 207° |
| 2026-05-08 09:49 | 48.93619 | 12.64795 | 21604 ft | 329 kts | 207° |
| 2026-05-08 09:50 | 48.91551 | 12.63320 | 21179 ft | 327 kts | 207° |
| 2026-05-08 09:50 | 48.89493 | 12.61845 | 20760 ft | 326 kts | 207° |
| 2026-05-08 09:50 | 48.87448 | 12.60375 | 20333 ft | 325 kts | 207° |
| 2026-05-08 09:50 | 48.85406 | 12.58908 | 19914 ft | 324 kts | 207° |
| 2026-05-08 09:51 | 48.83367 | 12.57452 | 19498 ft | 323 kts | 207° |
| 2026-05-08 09:51 | 48.81333 | 12.56008 | 19085 ft | 323 kts | 207° |
| 2026-05-08 09:51 | 48.79300 | 12.54571 | 18670 ft | 322 kts | 207° |
| 2026-05-08 09:51 | 48.77266 | 12.53135 | 18243 ft | 322 kts | 207° |
| 2026-05-08 09:52 | 48.75181 | 12.51887 | 17801 ft | 322 kts | 201° |
| 2026-05-08 09:52 | 48.73097 | 12.50772 | 17390 ft | 321 kts | 201° |
| 2026-05-08 09:52 | 48.70996 | 12.49645 | 16972 ft | 320 kts | 201° |
| 2026-05-08 09:52 | 48.68902 | 12.48520 | 16583 ft | 319 kts | 201° |
| 2026-05-08 09:53 | 48.66814 | 12.47396 | 16160 ft | 318 kts | 201° |
| 2026-05-08 09:53 | 48.64732 | 12.46266 | 15740 ft | 317 kts | 203° |
| 2026-05-08 09:53 | 48.62835 | 12.44617 | 15359 ft | 314 kts | 221° |
| 2026-05-08 09:53 | 48.61399 | 12.42175 | 14967 ft | 311 kts | 239° |
| 2026-05-08 09:54 | 48.60544 | 12.39185 | 14577 ft | 311 kts | 256° |
| 2026-05-08 09:54 | 48.60244 | 12.35949 | 14179 ft | 311 kts | 264° |
| 2026-05-08 09:54 | 48.60017 | 12.32693 | 13767 ft | 311 kts | 264° |
| 2026-05-08 09:54 | 48.59782 | 12.29444 | 13336 ft | 310 kts | 263° |
| 2026-05-08 09:55 | 48.59471 | 12.26220 | 12911 ft | 309 kts | 261° |
| 2026-05-08 09:55 | 48.59131 | 12.23035 | 12600 ft | 305 kts | 261° |
| 2026-05-08 09:55 | 48.58794 | 12.19906 | 12340 ft | 299 kts | 261° |
| 2026-05-08 09:55 | 48.58460 | 12.16826 | 12080 ft | 294 kts | 261° |
| 2026-05-08 09:56 | 48.58133 | 12.13810 | 11823 ft | 289 kts | 261° |
| 2026-05-08 09:56 | 48.57808 | 12.10829 | 11569 ft | 285 kts | 261° |
| 2026-05-08 09:56 | 48.57486 | 12.07888 | 11322 ft | 284 kts | 261° |
| 2026-05-08 09:56 | 48.57163 | 12.04956 | 11070 ft | 282 kts | 261° |
| 2026-05-08 09:57 | 48.56519 | 11.99131 | 10582 ft | 280 kts | 261° |
| 2026-05-08 09:57 | 48.56202 | 11.96280 | 10338 ft | 279 kts | 261° |
| 2026-05-08 09:57 | 48.55881 | 11.93401 | 10097 ft | 277 kts | 261° |
| 2026-05-08 09:58 | 48.55560 | 11.90537 | 9836 ft | 276 kts | 261° |
| 2026-05-08 09:58 | 48.55241 | 11.87683 | 9573 ft | 275 kts | 261° |
| 2026-05-08 09:58 | 48.54923 | 11.84833 | 9307 ft | 275 kts | 261° |
| 2026-05-08 09:58 | 48.54605 | 11.81994 | 9039 ft | 274 kts | 261° |
| 2026-05-08 09:59 | 48.54288 | 11.79163 | 8781 ft | 273 kts | 261° |
| 2026-05-08 09:59 | 48.53972 | 11.76335 | 8519 ft | 273 kts | 261° |
| 2026-05-08 09:59 | 48.53658 | 11.73519 | 8261 ft | 272 kts | 261° |
| 2026-05-08 09:59 | 48.53346 | 11.70707 | 8011 ft | 272 kts | 261° |
| 2026-05-08 10:00 | 48.53034 | 11.67901 | 7756 ft | 271 kts | 261° |
| 2026-05-08 10:00 | 48.52723 | 11.65102 | 7497 ft | 270 kts | 261° |
| 2026-05-08 10:00 | 48.52413 | 11.62311 | 7244 ft | 269 kts | 260° |
| 2026-05-08 10:00 | 48.52105 | 11.59527 | 7007 ft | 268 kts | 261° |
| 2026-05-08 10:01 | 48.51801 | 11.56752 | 6758 ft | 268 kts | 261° |
| 2026-05-08 10:01 | 48.51498 | 11.53984 | 6494 ft | 267 kts | 260° |
| 2026-05-08 10:01 | 48.50928 | 11.51347 | 6149 ft | 264 kts | 238° |
| 2026-05-08 10:01 | 48.49633 | 11.49445 | 5816 ft | 261 kts | 209° |
| 2026-05-08 10:02 | 48.47941 | 11.48544 | 5479 ft | 258 kts | 190° |
| 2026-05-08 10:02 | 48.46158 | 11.48512 | 5152 ft | 255 kts | 176° |
| 2026-05-08 10:02 | 48.44405 | 11.48755 | 4910 ft | 249 kts | 174° |
| 2026-05-08 10:02 | 48.42718 | 11.49005 | 4752 ft | 239 kts | 174° |
| 2026-05-08 10:03 | 48.41611 | 11.49170 | 4651 ft | 234 kts | 174° |
| 2026-05-08 10:03 | 48.40015 | 11.49405 | 4493 ft | 228 kts | 174° |
| 2026-05-08 10:03 | 48.38449 | 11.49631 | 4340 ft | 225 kts | 174° |
| 2026-05-08 10:03 | 48.36914 | 11.49857 | 4191 ft | 224 kts | 171° |
| 2026-05-08 10:04 | 48.35511 | 11.50732 | 4070 ft | 217 kts | 138° |
| 2026-05-08 10:04 | 48.34682 | 11.52567 | 3995 ft | 206 kts | 108° |
| 2026-05-08 10:04 | 48.34532 | 11.54604 | 4000 ft | 196 kts | 84° |
| 2026-05-08 10:04 | 48.34691 | 11.56606 | 4017 ft | 192 kts | 83° |
| 2026-05-08 10:05 | 48.34851 | 11.58594 | 3858 ft | 191 kts | 83° |
| 2026-05-08 10:05 | 48.35013 | 11.60573 | 3645 ft | 190 kts | 82° |
| 2026-05-08 10:05 | 48.35172 | 11.62533 | 3390 ft | 185 kts | 83° |
| 2026-05-08 10:05 | 48.35314 | 11.64377 | 3154 ft | 171 kts | 83° |
| 2026-05-08 10:06 | 48.35447 | 11.66091 | 2955 ft | 156 kts | 82° |
| 2026-05-08 10:06 | 48.35570 | 11.67646 | 2703 ft | 145 kts | 82° |
| 2026-05-08 10:06 | 48.35683 | 11.69108 | 2500 ft | 138 kts | 83° |
| 2026-05-08 10:06 | 48.35789 | 11.70530 | 2332 ft | 136 kts | 83° |
| 2026-05-08 10:07 | 48.35899 | 11.71939 | 2149 ft | 136 kts | 82° |
| 2026-05-08 10:07 | 48.36011 | 11.73353 | 1961 ft | 137 kts | 83° |
| 2026-05-08 10:07 | 48.36119 | 11.74775 | 1789 ft | 137 kts | 82° |
| 2026-05-08 10:07 | 48.36231 | 11.76197 | 1602 ft | 136 kts | 82° |
| 2026-05-08 10:08 | 48.36339 | 11.77576 | 1476 ft | 123 kts | 84° |
| 2026-05-08 10:08 | 48.36420 | 11.78624 | 1485 ft | 76 kts | 83° |
| 2026-05-08 10:08 | 48.36444 | 11.79234 | 1481 ft | 44 kts | 101° |
| 2026-05-08 10:08 | 48.36358 | 11.79579 | 1481 ft | 31 kts | 113° |
| 2026-05-08 10:09 | 48.36310 | 11.79744 | 1483 ft | 5 kts | 115° |
| 2026-05-08 10:09 | 48.36294 | 11.79785 | 1483 ft | 5 kts | 127° |
| 2026-05-08 10:09 | 48.36244 | 11.79833 | 1478 ft | 11 kts | 161° |
| 2026-05-08 10:09 | 48.36163 | 11.79847 | 1485 ft | 13 kts | 178° |
| 2026-05-08 10:10 | 48.36125 | 11.79783 | 1479 ft | 10 kts | 272° |
| 2026-05-08 10:10 | 48.36117 | 11.79636 | 1481 ft | 16 kts | 262° |
| 2026-05-08 10:10 | 48.36088 | 11.79490 | 1485 ft | 14 kts | 212° |
| 2026-05-08 10:10 | 48.36000 | 11.79496 | 1473 ft | 14 kts | 174° |
| 2026-05-08 10:11 | 48.35881 | 11.79516 | 1475 ft | 20 kts | 173° |
| 2026-05-08 10:11 | 48.35762 | 11.79537 | 1483 ft | 11 kts | 174° |
| 2026-05-08 10:11 | 48.35723 | 11.79565 | 1478 ft | 5 kts | 110° |
| 2026-05-08 10:11 | 48.35726 | 11.79631 | 1485 ft | 8 kts | 84° |
| 2026-05-08 10:12 | 48.35731 | 11.79697 | 1481 ft | 2 kts | 83° |
| 2026-05-08 10:12 | 48.35731 | 11.79699 | 1481 ft | 0 kts | 84° |